Flight Track Log - Related Links

Times and Time Zones

All times are in EDT time to prevent confusion due to time zone crossing. See the SWA303 flight status page for this flight to view local times or setup timezone preferences in your user account.


Time Position Orientation Groundspeed Altitude Reporting Facility
EDT Latitude Longitude Course Direction KTS MPH feet Rate Location/Type
Mon 09:40:42 PM 37.3833 -121.9500 141° Southeast 164 189 1,700  Level Northern Cal TRACON
Mon 09:41:42 PM 37.4500 -121.9667 349° North 248 285 4,900 1,650 Climbing Northern Cal TRACON
Mon 09:42:42 PM 37.4333 -121.9000 107° East 239 275 5,000 1,050 Climbing Northern Cal TRACON
Mon 09:43:42 PM 37.3833 -121.8500 142° Southeast 238 274 7,000 2,800 Climbing Northern Cal TRACON
Mon 09:44:42 PM 37.3333 -121.7833 133° Southeast 287 330 10,600 3,400 Climbing Northern Cal TRACON
Mon 09:45:42 PM 37.2667 -121.7167 141° Southeast 336 387 13,800 3,508 Climbing Northern Cal TRACON
Mon 09:46:00 PM 36.9638 -121.3760 141° Southeast  Level Estimated
Mon 09:46:52 PM 37.1811 -121.6192 138° Southeast 343 395 18,200  Level Oakland Center
Mon 09:47:53 PM 37.1056 -121.5328 138° Southeast 363 418 19,400 1,623 Climbing Oakland Center
Mon 09:48:54 PM 37.0458 -121.4175 123° Southeast 379 436 21,500 2,459 Climbing Oakland Center
Mon 09:49:55 PM 36.9822 -121.3067 126° Southeast 390 449 24,400 2,656 Climbing Oakland Center
Mon 09:50:56 PM 36.9081 -121.1986 131° Southeast 408 470 26,900 2,361 Climbing Oakland Center
Mon 09:51:57 PM 36.8356 -121.0939 131° Southeast 417 480 29,200 2,390 Climbing Oakland Center
Mon 09:52:59 PM 36.7428 -120.9622 131° Southeast 433 498 31,800 2,488 Climbing Oakland Center
Mon 09:54:00 PM 36.6636 -120.8483 131° Southeast 435 501 34,300 2,262 Climbing Oakland Center
Mon 09:55:01 PM 36.5869 -120.7381 131° Southeast 426 490 36,400 1,967 Climbing Oakland Center
Mon 09:56:02 PM 36.5069 -120.6258 132° Southeast 430 495 38,300 1,820 Climbing Oakland Center
Mon 09:57:03 PM 36.4303 -120.5139 130° Southeast 425 489 40,100 1,328 Climbing Oakland Center
Mon 09:58:04 PM 36.3525 -120.4078 132° Southeast 418 481 41,000 443 Climbing Oakland Center
Mon 09:59:05 PM 36.2747 -120.2983 131° Southeast 420 483 41,000  Level Oakland Center
Mon 10:00:06 PM 36.1967 -120.1858 131° Southeast 427 491 41,000  Level Oakland Center
Mon 10:01:07 PM 36.1203 -120.0797 132° Southeast 415 478 41,000  Level Oakland Center
Mon 10:02:08 PM 36.0422 -119.9722 132° Southeast 417 480 41,000  Level Oakland Center
Mon 10:03:09 PM 35.9642 -119.8628 131° Southeast 421 484 41,000  Level Oakland Center
Mon 10:04:10 PM 35.8878 -119.7583 132° Southeast 410 472 41,000  Level Oakland Center
Mon 10:05:11 PM 35.8119 -119.6522 131° Southeast 409 471 41,000  Level Oakland Center
Mon 10:06:13 PM 35.7344 -119.5456 132° Southeast 414 476 41,000 -195 Level Oakland Center
Mon 10:07:14 PM 35.6408 -119.4183 132° Southeast 416 479 40,600 -689 Descending Oakland Center
Mon 10:08:15 PM 35.5636 -119.3133 132° Southeast 416 479 39,600 -934 Descending Oakland Center
Mon 10:09:16 PM 35.4864 -119.2075 132° Southeast 414 476 38,700 -885 Descending Oakland Center
Mon 10:10:17 PM 35.4078 -119.1017 132° Southeast 417 480 37,800 -912 Descending Oakland Center
Mon 10:11:21 PM 35.3314 -118.9950 131° Southeast 420 483 36,800 -912 Descending Los Angeles Center
Mon 10:12:22 PM 35.2517 -118.8867 132° Southeast 424 488 35,900 -844 Descending Los Angeles Center
Mon 10:13:36 PM 35.1700 -118.7778 133° Southeast 429 494 34,900 -1,191 Descending Los Angeles Center
Mon 10:14:38 PM 35.0564 -118.6275 133° Southeast 431 496 33,200 -1,403 Descending Los Angeles Center
Mon 10:15:40 PM 34.9758 -118.5217 133° Southeast 427 491 32,000 -2,129 Descending Los Angeles Center
Mon 10:16:42 PM 34.8942 -118.4108 132° Southeast 434 499 28,800 -2,878 Descending Los Angeles Center
Mon 10:17:43 PM 34.8142 -118.3058 133° Southeast 430 495 26,100 -2,146 Descending Los Angeles Center
Mon 10:18:45 PM 34.7386 -118.2067 133° Southeast 413 475 24,400 -1,355 Descending Los Angeles Center
Mon 10:19:47 PM 34.6661 -118.1108 133° Southeast 394 453 23,300 -889 Descending Los Angeles Center
Mon 10:21:00 PM 34.6036 -118.0044 125° Southeast 392 451 22,400 -1,600 Descending Los Angeles Center
Mon 10:22:02 PM 34.5317 -117.8456 119° Southeast 386 444 19,700 -2,419 Descending Los Angeles Center
Mon 10:23:04 PM 34.4808 -117.7375 120° Southeast 373 429 17,400 -2,177 Descending Los Angeles Center
Mon 10:24:06 PM 34.4339 -117.6342 119° Southeast 356 410 15,200 -1,645 Descending Los Angeles Center
Mon 10:25:08 PM 34.3872 -117.5347 120° Southeast 342 394 14,000 -1,073 Descending Los Angeles Center
Mon 10:26:09 PM 34.3414 -117.4331 119° Southeast 307 353 13,000 -1,024 Descending Los Angeles Center
Mon 10:27:11 PM 34.3083 -117.3711 123° Southeast 284 327 11,900 -2,081 Descending Los Angeles Center
Mon 10:28:13 PM 34.2183 -117.3314 160° South 294 338 8,700 -2,195 Descending Los Angeles Center
Mon 10:29:14 PM 34.1436 -117.3192 172° South 273 314 7,400 -1,398 Descending Los Angeles Center
Mon 10:29:56 PM 34.1000 -117.3167 177° South 230 265 6,300 -1,882 Descending Southern California TRACON
Mon 10:30:56 PM 34.0500 -117.3667 220° Southwest 228 262 4,200 -1,476 Descending Southern California TRACON
Mon 10:32:02 PM 34.0500 -117.4333 270° West 180 207 3,200 -900 Descending Southern California TRACON
Mon 10:32:56 PM 34.0500 -117.4833 270° West 163 188 2,400 -789 Descending Southern California TRACON
Mon 10:33:56 PM 34.0500 -117.5333 270° West 127 146 1,700 -650 Descending Southern California TRACON
Mon 10:34:56 PM 34.0500 -117.5667 270° West 123 142 1,100 -600 Descending Southern California TRACON
Mon 10:37:00 PM 34.0500 -117.6000 270° West  Level FlightAware Approximate

Login

Don't have an account? Register now (free) for customized features, flight alerts, and more!